Hemple, Missouri
Current Conditions -  °F | °C
As of 7:53 AM on Sunday 23 Nov 2014 (Local Time) from KSTJ Reporting Station
Overcast Overcast  
Wind Chill: 53°   Ceiling: 800
Heat Index: 53°   Visibility: 7mi
Dew Point: 51°   Wind: 0mph
Humidity: 93%   Direction: NA
Pressure: 29.53"   Gusts: NA
Location:  39.7395°N, 94.5042°W
Report Text: KSTJ 231353Z AUTO 00000KT 7SM OVC008 12/11 A2953 RMK AO2 SLP998 T01170106
Loading
Personal Weather Stations






























Interactive Weather Map New forecast layout! Learn more

10-Day Weather Forecast

Advertisements
Track Severe Weather on mobile